This is the latest recevied weather packets stored in our database for station/object K4PAD. If no packets are shown the sender has not sent any weather packets the latest 1 day(s).
| Time | Temp. | Humidity | Pressure | Rain* | Wind** | Luminosity | Snow |
|---|---|---|---|---|---|---|---|
| 1778012792 | 27.78° C | 44% | 1016.4 hPa | 0 mm | 2.24 m/s, 85° | 805 W/m² | - |
| 1778012488 | 28.33° C | 44% | 1016.4 hPa | 0 mm | 1.34 m/s, 87° | 565 W/m² | - |
| 1778012185 | 28.33° C | 43% | 1016.5 hPa | 0 mm | 1.34 m/s, 43° | 897 W/m² | - |
| 1778011883 | 28.89° C | 42% | 1016.7 hPa | 0 mm | 0.45 m/s, 132° | 279 W/m² | - |
| 1778011581 | 28.89° C | 42% | 1016.4 hPa | 0 mm | 0.45 m/s, 259° | 858 W/m² | - |
| 1778011277 | 28.89° C | 41% | 1016.5 hPa | 0 mm | 1.34 m/s, 73° | 866 W/m² | - |
| 1778010973 | 28.33° C | 44% | 1016.6 hPa | 0 mm | 0.45 m/s, 85° | 812 W/m² | - |
| 1778010671 | 27.78° C | 44% | 1016.7 hPa | 0 mm | 0.45 m/s, 63° | 849 W/m² | - |
| 1778010368 | 28.33° C | 44% | 1016.6 hPa | 0 mm | 0.45 m/s, 75° | 557 W/m² | - |
| 1778010064 | 27.78° C | 44% | 1016.8 hPa | 0 mm | 0.45 m/s, 118° | 736 W/m² | - |
| 1778009761 | 27.78° C | 44% | 1016.8 hPa | 0 mm | 0.89 m/s, 104° | 963 W/m² | - |
| 1778009458 | 28.33° C | 43% | 1016.6 hPa | 0 mm | 0.89 m/s, 68° | 292 W/m² | - |
| 1778009157 | 29.44° C | 40% | 1016.8 hPa | 0 mm | 0.45 m/s, 67° | 300 W/m² | - |
| 1778008853 | 28.89° C | 40% | 1017.1 hPa | 0 mm | 1.34 m/s, 135° | 1010 W/m² | - |
| 1778008552 | 28.33° C | 41% | 1017.1 hPa | 0 mm | 0.89 m/s, 66° | 965 W/m² | - |
| 1778008249 | 27.78° C | 43% | 1017.2 hPa | 0 mm | 0 m/s | 934 W/m² | - |
| 1778007943 | 27.78° C | 40% | 1017.3 hPa | 0 mm | 0.89 m/s, 82° | 343 W/m² | - |
| 1778007640 | 28.33° C | 41% | 1017.1 hPa | 0 mm | 0 m/s | 245 W/m² | - |
| 1778007337 | 27.78° C | 42% | 1017.2 hPa | 0 mm | 0 m/s | 1037 W/m² | - |
| 1778007033 | 27.78° C | 41% | 1017.5 hPa | 0 mm | 1.34 m/s, 76° | 315 W/m² | - |
| 1778006730 | 27.78° C | 41% | 1017.5 hPa | 0 mm | 1.34 m/s, 94° | 1036 W/m² | - |
| 1778006427 | 28.33° C | 40% | 1017.4 hPa | 0 mm | 0.89 m/s, 86° | 316 W/m² | - |
| 1778006124 | 28.89° C | 39% | 1017.5 hPa | 0 mm | 0.45 m/s, 48° | 359 W/m² | - |
| 1778005821 | 28.89° C | 37% | 1017.7 hPa | 0 mm | 1.34 m/s, 89° | 945 W/m² | - |
| 1778005517 | 28.33° C | 41% | 1017.4 hPa | 0 mm | 0.89 m/s, 64° | 1139 W/m² | - |
* Rain latest hour (hover to see other rain measurements)
** Current wind speed in m/s (hover to see current wind gust speed)